createdAt,value
2022-12-13T00:06:06.865Z,8.50
2022-12-13T00:20:06.896Z,7.90
2022-12-13T00:34:06.891Z,7.10
2022-12-13T00:48:06.889Z,6.50
2022-12-13T01:02:06.927Z,6.80
2022-12-13T01:16:06.963Z,5.60
2022-12-13T01:30:06.962Z,5.60
2022-12-13T01:44:07.140Z,5.35
2022-12-13T01:58:07.272Z,4.75
2022-12-13T02:12:07.298Z,4.40
2022-12-13T02:26:07.297Z,4.40
2022-12-13T02:40:07.310Z,3.90
2022-12-13T02:54:07.295Z,3.80
2022-12-13T03:08:07.323Z,4.00
2022-12-13T03:22:07.294Z,4.00
2022-12-13T03:36:07.307Z,4.10
2022-12-13T03:50:26.002Z,3.90
2022-12-13T04:04:07.305Z,4.10
2022-12-13T04:18:07.311Z,3.80
2022-12-13T04:32:25.735Z,4.00
2022-12-13T04:46:07.397Z,4.00
2022-12-13T05:00:07.352Z,3.40
2022-12-13T05:14:07.334Z,3.30
2022-12-13T05:28:08.675Z,3.20
2022-12-13T05:42:07.365Z,3.10
2022-12-13T05:56:07.413Z,3.00
2022-12-13T06:10:09.987Z,3.40
2022-12-13T06:24:07.850Z,3.60
2022-12-13T06:38:11.836Z,9.30
2022-12-13T06:54:07.871Z,8.80
2022-12-13T07:09:07.862Z,8.50
2022-12-13T07:24:07.879Z,7.50
2022-12-13T07:40:07.888Z,7.30
2022-12-13T07:55:07.909Z,6.80
2022-12-13T08:10:07.907Z,6.60
2022-12-13T08:25:08.425Z,6.80
2022-12-13T08:40:08.701Z,6.50
2022-12-13T08:55:08.795Z,6.50
2022-12-13T09:10:26.043Z,6.30
2022-12-13T09:25:08.748Z,6.30
2022-12-13T09:40:15.862Z,6.20
2022-12-13T09:55:10.889Z,5.60
2022-12-13T10:10:08.802Z,5.50
2022-12-13T10:25:08.794Z,5.00
2022-12-13T10:40:08.811Z,4.90
2022-12-13T10:44:08.897Z,4.80
2022-12-13T10:59:13.549Z,4.80
2022-12-13T11:14:08.974Z,4.30
2022-12-13T11:29:09.051Z,4.50
2022-12-13T11:44:09.084Z,4.30
2022-12-13T12:00:12.986Z,4.00
2022-12-13T12:15:16.009Z,6.30
2022-12-13T12:30:09.091Z,12.00
2022-12-13T12:45:10.618Z,15.00
2022-12-13T13:00:09.430Z,15.40
2022-12-13T13:15:09.404Z,16.70
2022-12-13T13:30:09.395Z,17.80
2022-12-13T13:45:09.483Z,17.10
2022-12-13T14:00:09.531Z,15.60
2022-12-13T14:15:09.544Z,15.30
2022-12-13T14:30:17.899Z,14.40
2022-12-13T14:45:09.716Z,13.45
2022-12-13T15:00:09.835Z,13.20
2022-12-13T15:15:09.663Z,15.40
2022-12-13T15:31:09.679Z,15.30
2022-12-13T15:46:09.680Z,15.60
2022-12-13T16:01:09.715Z,13.60
2022-12-13T16:14:09.796Z,13.20
2022-12-13T16:28:09.744Z,12.40
2022-12-13T16:42:09.873Z,12.70
2022-12-13T16:56:09.947Z,11.60
2022-12-13T17:10:09.983Z,10.50
2022-12-13T17:24:09.946Z,9.50
2022-12-13T17:38:09.940Z,9.10
2022-12-13T17:52:09.993Z,8.60
2022-12-13T18:06:10.006Z,7.90
2022-12-13T18:20:10.058Z,8.80
2022-12-13T18:34:09.984Z,7.40
2022-12-13T18:48:09.984Z,7.50
2022-12-13T19:02:10.284Z,7.40
2022-12-13T19:16:10.331Z,7.20
2022-12-13T19:30:10.417Z,6.20
2022-12-13T19:44:10.315Z,6.35
2022-12-13T19:59:10.349Z,7.80
2022-12-13T20:13:10.385Z,14.30
2022-12-13T20:27:10.370Z,17.10
2022-12-13T20:41:10.389Z,16.60
2022-12-13T20:55:10.390Z,15.70
2022-12-13T21:09:10.408Z,14.90
2022-12-13T21:23:10.405Z,13.40
2022-12-13T21:37:10.407Z,12.80
2022-12-13T21:51:10.413Z,11.70
2022-12-13T22:05:10.441Z,11.10
2022-12-13T22:19:10.412Z,10.30
2022-12-13T22:33:10.420Z,9.70
2022-12-13T22:47:10.433Z,9.80
2022-12-13T23:01:10.654Z,8.80
2022-12-13T23:15:10.459Z,8.50
2022-12-13T23:29:10.497Z,8.10
2022-12-13T23:43:10.676Z,8.00
2022-12-13T23:57:10.656Z,7.95
